TimeCST,TemperatureF,Dew PointF,Humidity,Sea Level PressureIn,VisibilityMPH,Wind Direction,Wind SpeedMPH,Gust SpeedMPH,PrecipitationIn,Events,Conditions,WindDirDegrees,DateUTC
12:51 AM,27.0,17.1,66,29.96,9.0,WNW,13.8,20.7,0.00,Snow,Light Snow,300,2013-01-31 06:51:00
1:51 AM,28.0,14.0,56,29.98,9.0,West,25.3,31.1,0.00,Snow,Light Snow,280,2013-01-31 07:51:00
2:51 AM,28.0,15.1,58,29.98,9.0,West,16.1,-,0.00,Snow,Light Snow,280,2013-01-31 08:51:00
2:58 AM,28.4,15.8,59,29.94,9.0,West,16.1,-,0.00,Snow,Light Snow,270,2013-01-31 08:58:00
3:38 AM,28.4,15.8,59,29.94,9.0,West,17.3,-,0.00,Snow,Light Snow,260,2013-01-31 09:38:00
3:51 AM,28.0,14.0,56,29.97,9.0,West,18.4,25.3,0.00,Snow,Light Snow,280,2013-01-31 09:51:00
4:51 AM,28.0,15.1,58,29.97,10.0,West,17.3,24.2,0.00,,Mostly Cloudy,260,2013-01-31 10:51:00
5:51 AM,28.0,16.0,61,29.99,10.0,West,11.5,-,N/A,,Mostly Cloudy,270,2013-01-31 11:51:00
6:51 AM,27.0,15.1,61,30.01,10.0,West,11.5,-,N/A,,Mostly Cloudy,260,2013-01-31 12:51:00
7:51 AM,28.0,15.1,58,30.03,10.0,West,11.5,-,N/A,,Mostly Cloudy,260,2013-01-31 13:51:00
8:51 AM,28.9,16.0,58,30.04,10.0,WSW,16.1,19.6,N/A,,Overcast,250,2013-01-31 14:51:00
9:51 AM,30.0,17.1,59,30.07,10.0,West,18.4,24.2,0.00,Snow,Light Snow,260,2013-01-31 15:51:00
10:51 AM,32.0,17.1,54,30.07,10.0,West,18.4,25.3,0.00,,Mostly Cloudy,260,2013-01-31 16:51:00
11:51 AM,33.1,18.0,54,30.05,10.0,West,18.4,21.9,N/A,,Overcast,260,2013-01-31 17:51:00
12:51 PM,33.1,18.0,54,30.04,10.0,West,20.7,-,N/A,,Overcast,280,2013-01-31 18:51:00
1:14 PM,32.0,19.4,60,30.00,3.0,WNW,12.7,-,0.00,Snow,Light Snow,290,2013-01-31 19:14:00
1:18 PM,32.0,21.2,64,30.00,2.0,WNW,11.5,-,0.00,Snow,Light Snow,300,2013-01-31 19:18:00
2:07 PM,30.2,23.0,75,30.02,2.0,WNW,17.3,23.0,0.00,Snow,Light Snow,290,2013-01-31 20:07:00
2:51 PM,30.0,18.0,61,30.09,3.0,WNW,20.7,32.2,0.00,Snow,Light Snow,300,2013-01-31 20:51:00
2:59 PM,28.4,15.8,59,30.05,5.0,NW,23.0,31.1,0.00,Snow,Light Snow,310,2013-01-31 20:59:00
3:47 PM,26.6,8.6,47,30.08,10.0,WNW,23.0,35.7,0.00,,Overcast,300,2013-01-31 21:47:00
3:51 PM,27.0,9.0,47,30.12,10.0,NW,26.5,34.5,0.00,,Mostly Cloudy,310,2013-01-31 21:51:00
4:51 PM,23.0,8.1,53,30.18,10.0,NW,26.5,34.5,N/A,,Mostly Cloudy,310,2013-01-31 22:51:00
5:51 PM,19.9,6.1,55,30.22,10.0,WNW,17.3,28.8,N/A,,Scattered Clouds,300,2013-01-31 23:51:00
6:51 PM,19.0,3.9,52,30.27,10.0,WNW,20.7,29.9,N/A,,Scattered Clouds,290,2013-02-01 00:51:00
7:51 PM,19.0,3.0,50,30.30,10.0,WNW,21.9,31.1,N/A,,Mostly Cloudy,300,2013-02-01 01:51:00
8:51 PM,17.1,1.0,50,30.34,10.0,WNW,19.6,32.2,N/A,,Scattered Clouds,300,2013-02-01 02:51:00
9:51 PM,14.0,-0.9,52,30.38,10.0,NW,18.4,28.8,N/A,,Partly Cloudy,310,2013-02-01 03:51:00
10:51 PM,12.9,-0.9,54,30.40,10.0,WNW,18.4,29.9,N/A,,Partly Cloudy,300,2013-02-01 04:51:00
11:51 PM,12.0,-2.0,53,30.42,10.0,WNW,18.4,31.1,N/A,,Partly Cloudy,300,2013-02-01 05:51:00